Ray Brook, New York
Current Conditions -  °F | °C
As of 10:51 AM on Friday 28 Nov 2014 (Local Time) from KSLK Reporting Station
Light Snow Light Snow  
Wind Chill:   Ceiling: 1800
Heat Index: 19°   Visibility: 5mi
Dew Point: 12°   Wind: 9mph
Humidity: 74%   Direction: 250°WSW
Pressure: 30.02"   Gusts: NA
Location:  44.3°N, 74.09°W
Report Text: KSLK 281551Z AUTO 25008KT 5SM -SN OVC018 M07/M11 A3002 RMK AO2 SNB1459E06B50 SLP194 P0000 T10721111
Loading
Personal Weather Stations






























Interactive Weather Map New forecast layout! Learn more

10-Day Weather Forecast

Advertisements
Track Severe Weather on mobile